createdAt,value
2023-03-18T00:02:03.569Z,7.13
2023-03-18T00:04:14.223Z,6.90
2023-03-18T00:06:23.381Z,7.13
2023-03-18T00:08:33.457Z,7.27
2023-03-18T00:10:42.247Z,7.13
2023-03-18T00:12:50.845Z,6.30
2023-03-18T00:14:59.762Z,7.17
2023-03-18T00:17:08.283Z,7.33
2023-03-18T00:19:19.286Z,7.53
2023-03-18T00:21:28.680Z,7.93
2023-03-18T00:23:39.168Z,7.00
2023-03-18T00:25:50.148Z,7.37
2023-03-18T00:27:59.207Z,7.43
2023-03-18T00:30:08.826Z,7.53
2023-03-18T00:32:18.049Z,7.30
2023-03-18T00:34:29.074Z,7.33
2023-03-18T00:36:38.521Z,7.10
2023-03-18T00:38:51.216Z,8.37
2023-03-18T00:41:11.602Z,7.67
2023-03-18T00:43:22.711Z,8.00
2023-03-18T00:45:31.666Z,8.23
2023-03-18T00:47:41.057Z,7.60
2023-03-18T00:49:51.698Z,7.63
2023-03-18T00:52:00.882Z,8.07
2023-03-18T00:54:10.221Z,7.33
2023-03-18T00:56:19.916Z,7.97
2023-03-18T00:58:28.722Z,8.17
2023-03-18T01:00:38.274Z,7.63
2023-03-18T01:02:49.409Z,7.57
2023-03-18T01:04:59.379Z,7.53
2023-03-18T01:07:08.206Z,7.83
2023-03-18T01:09:17.159Z,7.53
2023-03-18T01:11:26.057Z,7.77
2023-03-18T01:13:35.785Z,8.43
2023-03-18T01:15:44.672Z,7.63
2023-03-18T01:17:57.058Z,8.07
2023-03-18T01:20:09.730Z,7.73
2023-03-18T01:22:19.103Z,7.83
2023-03-18T01:24:28.755Z,8.17
2023-03-18T01:26:37.696Z,7.43
2023-03-18T01:28:47.739Z,8.47
2023-03-18T01:30:57.374Z,8.00
2023-03-18T01:33:07.757Z,7.93
2023-03-18T01:35:18.229Z,7.13
2023-03-18T01:37:27.280Z,8.20
2023-03-18T01:39:37.581Z,8.20
2023-03-18T01:41:46.808Z,8.37
2023-03-18T01:43:56.429Z,7.90
2023-03-18T01:46:25.526Z,7.87
2023-03-18T01:48:37.675Z,7.77
2023-03-18T01:50:49.898Z,8.10
2023-03-18T01:52:59.666Z,8.10
2023-03-18T01:55:10.956Z,8.43
2023-03-18T01:57:20.507Z,8.33
2023-03-18T01:59:31.840Z,7.80
2023-03-18T02:01:43.950Z,7.77
2023-03-18T02:03:53.408Z,7.50
2023-03-18T02:06:03.854Z,8.37
2023-03-18T02:08:12.833Z,7.90
2023-03-18T02:10:22.562Z,8.57
2023-03-18T02:12:33.600Z,8.17
2023-03-18T02:14:42.401Z,7.43
2023-03-18T02:16:53.239Z,8.87
2023-03-18T02:19:05.655Z,8.50
2023-03-18T02:21:32.425Z,8.73
2023-03-18T02:23:48.442Z,7.70
2023-03-18T02:25:59.974Z,7.60
2023-03-18T02:28:11.898Z,8.10
2023-03-18T02:30:23.052Z,8.70
2023-03-18T02:32:33.563Z,8.83
2023-03-18T02:34:43.644Z,9.53
2023-03-18T02:36:52.715Z,8.30
2023-03-18T02:39:01.673Z,9.23
2023-03-18T02:41:14.726Z,9.37
2023-03-18T02:43:27.317Z,9.63
2023-03-18T02:45:40.810Z,8.47
2023-03-18T02:47:50.668Z,9.23
2023-03-18T02:49:59.607Z,9.40
2023-03-18T02:52:08.465Z,9.63
2023-03-18T02:54:18.907Z,8.77
2023-03-18T02:56:27.529Z,9.80
2023-03-18T02:58:38.999Z,9.27
2023-03-18T03:00:47.645Z,10.03
2023-03-18T03:02:56.900Z,10.10
2023-03-18T03:05:05.687Z,9.60
2023-03-18T03:07:14.748Z,11.10
2023-03-18T03:09:23.860Z,11.17
2023-03-18T03:11:32.895Z,9.97
2023-03-18T03:13:45.799Z,10.93
2023-03-18T03:15:54.623Z,10.17
2023-03-18T03:18:04.449Z,10.27
2023-03-18T03:20:15.464Z,10.17
2023-03-18T03:22:24.521Z,10.77
2023-03-18T03:24:33.687Z,10.77
2023-03-18T03:26:42.661Z,12.27
2023-03-18T03:28:53.189Z,11.43
2023-03-18T03:31:03.010Z,12.17
2023-03-18T03:33:12.760Z,11.93
2023-03-18T03:35:22.476Z,12.10
2023-03-18T03:37:31.680Z,12.80
2023-03-18T03:39:40.657Z,11.97
2023-03-18T03:41:51.464Z,11.80
2023-03-18T03:44:02.025Z,12.87
2023-03-18T03:46:11.749Z,11.00
2023-03-18T03:48:20.841Z,12.20
2023-03-18T03:50:29.908Z,11.97
2023-03-18T03:52:39.049Z,12.60
2023-03-18T03:54:47.756Z,11.63
2023-03-18T03:56:57.221Z,12.20
2023-03-18T03:59:07.606Z,13.73
2023-03-18T04:01:16.411Z,12.50
2023-03-18T04:03:26.028Z,13.00
2023-03-18T04:05:34.953Z,12.10
2023-03-18T04:07:44.091Z,12.43
2023-03-18T04:09:52.849Z,12.80
2023-03-18T04:12:01.382Z,13.20
2023-03-18T04:14:12.002Z,13.47
2023-03-18T04:16:21.490Z,12.80
2023-03-18T04:18:30.771Z,12.87
2023-03-18T04:20:40.588Z,12.83
2023-03-18T04:22:49.925Z,12.00
2023-03-18T04:24:58.980Z,12.23
2023-03-18T04:27:08.334Z,12.87
2023-03-18T04:29:18.925Z,13.07
2023-03-18T04:31:28.736Z,12.67
2023-03-18T04:33:37.656Z,12.73
2023-03-18T04:35:46.780Z,13.23
2023-03-18T04:37:56.273Z,12.93
2023-03-18T04:40:06.669Z,13.37
2023-03-18T04:42:15.658Z,12.63
2023-03-18T04:44:26.301Z,12.93
2023-03-18T04:46:35.222Z,13.20
2023-03-18T04:48:44.909Z,13.30
2023-03-18T04:50:54.836Z,13.03
2023-03-18T04:53:03.665Z,14.40
2023-03-18T04:55:14.253Z,14.67
2023-03-18T04:57:23.315Z,13.30
2023-03-18T04:59:33.947Z,12.57
2023-03-18T05:01:42.776Z,13.63
2023-03-18T05:03:52.246Z,13.70
2023-03-18T05:06:01.542Z,13.20
2023-03-18T05:08:10.352Z,13.10
2023-03-18T05:10:19.725Z,14.97
2023-03-18T05:12:28.362Z,12.60
2023-03-18T05:14:38.758Z,14.43
2023-03-18T05:16:48.394Z,13.97
2023-03-18T05:18:57.745Z,13.93
2023-03-18T05:21:08.059Z,14.83
2023-03-18T05:23:16.980Z,15.30
2023-03-18T05:25:25.915Z,14.60
2023-03-18T05:27:35.001Z,15.00
2023-03-18T05:29:45.628Z,14.23
2023-03-18T05:31:54.963Z,14.73
2023-03-18T05:34:03.983Z,15.20
2023-03-18T05:36:13.372Z,15.97
2023-03-18T05:38:22.187Z,15.40
2023-03-18T05:40:31.824Z,15.17
2023-03-18T05:42:55.286Z,15.50
2023-03-18T05:45:07.573Z,15.70
2023-03-18T05:47:16.530Z,15.73
2023-03-18T05:49:25.494Z,15.43
2023-03-18T05:51:34.579Z,16.23
2023-03-18T05:53:43.542Z,15.13
2023-03-18T05:55:52.539Z,15.40
2023-03-18T05:58:02.067Z,16.00
2023-03-18T06:00:15.732Z,15.47
2023-03-18T06:02:25.012Z,15.67
2023-03-18T06:04:34.420Z,15.50
2023-03-18T06:06:43.643Z,16.07
2023-03-18T06:08:52.825Z,16.10
2023-03-18T06:11:01.323Z,17.73
2023-03-18T06:13:10.065Z,15.17
2023-03-18T06:15:21.496Z,16.23
2023-03-18T06:17:30.407Z,15.87
2023-03-18T06:19:40.083Z,15.87
2023-03-18T06:21:49.218Z,16.97
2023-03-18T06:23:58.936Z,15.47
2023-03-18T06:26:08.985Z,16.17
2023-03-18T06:28:18.778Z,16.17
2023-03-18T06:30:29.231Z,16.97
2023-03-18T06:32:38.185Z,17.80
2023-03-18T06:34:47.235Z,16.53
2023-03-18T06:36:56.714Z,16.93
2023-03-18T06:39:05.480Z,16.80
2023-03-18T06:41:14.866Z,17.03
2023-03-18T06:43:23.696Z,15.50
2023-03-18T06:45:35.613Z,17.00
2023-03-18T06:47:44.699Z,16.40
2023-03-18T06:49:53.918Z,16.83
2023-03-18T06:52:03.919Z,16.07
2023-03-18T06:54:12.886Z,17.73
2023-03-18T06:56:22.329Z,17.40
2023-03-18T06:58:31.982Z,16.20
2023-03-18T07:00:45.605Z,14.97
2023-03-18T07:02:54.879Z,16.40
2023-03-18T07:05:04.419Z,15.33
2023-03-18T07:07:13.728Z,15.53
2023-03-18T07:09:23.021Z,15.17
2023-03-18T07:11:31.636Z,15.83
2023-03-18T07:13:40.290Z,15.97
2023-03-18T07:15:51.004Z,15.43
2023-03-18T07:18:00.710Z,16.90
2023-03-18T07:20:10.011Z,16.53
2023-03-18T07:22:18.748Z,15.27
2023-03-18T07:24:27.447Z,14.77
2023-03-18T07:26:36.258Z,14.70
2023-03-18T07:28:45.030Z,15.73
2023-03-18T07:30:55.448Z,16.03
2023-03-18T07:33:04.772Z,15.47
2023-03-18T07:35:14.498Z,16.33
2023-03-18T07:37:23.486Z,15.83
2023-03-18T07:39:32.093Z,14.63
2023-03-18T07:41:41.228Z,15.67
2023-03-18T07:43:50.428Z,15.90
2023-03-18T07:46:01.058Z,15.63
2023-03-18T07:48:09.772Z,16.57
2023-03-18T07:50:18.733Z,15.63
2023-03-18T07:52:27.265Z,15.07
2023-03-18T07:54:36.933Z,15.07
2023-03-18T07:56:45.838Z,15.77
2023-03-18T07:58:54.705Z,15.40
2023-03-18T08:01:05.408Z,15.63
2023-03-18T08:03:14.764Z,16.70
2023-03-18T08:05:24.028Z,16.23
2023-03-18T08:07:33.887Z,15.33
2023-03-18T08:09:42.617Z,14.90
2023-03-18T08:11:51.574Z,15.53
2023-03-18T08:14:00.671Z,16.27
2023-03-18T08:16:12.691Z,14.80
2023-03-18T08:18:21.760Z,15.70
2023-03-18T08:20:30.652Z,15.50
2023-03-18T08:22:39.859Z,15.60
2023-03-18T08:24:48.481Z,16.20
2023-03-18T08:26:58.098Z,16.23
2023-03-18T08:29:07.479Z,15.30
2023-03-18T08:31:18.403Z,15.60
2023-03-18T08:33:27.670Z,15.57
2023-03-18T08:35:37.565Z,14.67
2023-03-18T08:37:47.049Z,15.60
2023-03-18T08:39:56.730Z,14.87
2023-03-18T08:42:06.132Z,16.37
2023-03-18T08:44:15.481Z,16.03
2023-03-18T08:46:26.350Z,15.30
2023-03-18T08:48:35.492Z,16.67
2023-03-18T08:50:45.057Z,14.50
2023-03-18T08:52:54.342Z,15.83
2023-03-18T08:55:03.298Z,15.33
2023-03-18T08:57:12.273Z,15.67
2023-03-18T08:59:21.922Z,16.20
2023-03-18T09:01:32.227Z,15.60
2023-03-18T09:03:41.678Z,16.07
2023-03-18T09:05:50.641Z,17.13
2023-03-18T09:07:59.334Z,17.10
2023-03-18T09:10:09.562Z,15.63
2023-03-18T09:12:18.798Z,16.10
2023-03-18T09:14:27.909Z,15.43
2023-03-18T09:16:38.409Z,16.70
2023-03-18T09:18:48.870Z,15.57
2023-03-18T09:20:58.571Z,15.40
2023-03-18T09:23:07.626Z,15.43
2023-03-18T09:25:16.854Z,16.67
2023-03-18T09:27:25.574Z,16.40
2023-03-18T09:29:34.648Z,14.57
2023-03-18T09:31:45.432Z,16.40
2023-03-18T09:33:54.132Z,16.37
2023-03-18T09:36:03.698Z,16.87
2023-03-18T09:38:15.814Z,16.70
2023-03-18T09:40:27.851Z,15.17
2023-03-18T09:42:43.224Z,16.67
2023-03-18T09:44:56.743Z,14.70
2023-03-18T09:47:16.522Z,15.80
2023-03-18T09:49:33.819Z,15.73
2023-03-18T09:51:47.177Z,14.47
2023-03-18T09:53:57.238Z,15.17
2023-03-18T09:56:06.769Z,15.50
2023-03-18T09:58:20.472Z,15.07
2023-03-18T10:00:31.809Z,15.77
2023-03-18T10:02:44.114Z,15.70
2023-03-18T10:04:55.993Z,15.03
2023-03-18T10:07:08.142Z,14.67
2023-03-18T10:09:19.379Z,14.37
2023-03-18T10:11:31.390Z,14.00
2023-03-18T10:13:45.376Z,13.67
2023-03-18T10:15:57.115Z,13.80
2023-03-18T10:18:12.829Z,14.80
2023-03-18T10:20:22.730Z,14.53
2023-03-18T10:22:40.778Z,13.93
2023-03-18T10:24:53.189Z,13.93
2023-03-18T10:27:05.602Z,13.97
2023-03-18T10:29:30.833Z,14.33
2023-03-18T10:31:44.149Z,13.63
2023-03-18T10:33:59.079Z,13.70
2023-03-18T10:36:10.916Z,13.33
2023-03-18T10:38:20.980Z,15.03
2023-03-18T10:40:32.415Z,14.00
2023-03-18T10:42:43.474Z,14.03
2023-03-18T10:44:52.853Z,14.27
2023-03-18T10:47:04.276Z,13.77
2023-03-18T10:49:19.718Z,13.10
2023-03-18T10:51:31.501Z,12.90
2023-03-18T10:53:42.679Z,13.37
2023-03-18T10:55:57.532Z,14.07
2023-03-18T10:58:16.146Z,14.20
2023-03-18T11:00:29.659Z,14.37
2023-03-18T11:02:41.402Z,13.20
2023-03-18T11:04:56.946Z,13.80
2023-03-18T11:07:06.952Z,13.23
2023-03-18T11:09:18.202Z,13.70
2023-03-18T11:11:33.558Z,13.73
2023-03-18T11:13:47.819Z,14.20
2023-03-18T11:15:58.984Z,14.10
2023-03-18T11:18:07.666Z,14.30
2023-03-18T11:20:24.829Z,14.60
2023-03-18T11:22:33.457Z,16.07
2023-03-18T11:24:44.308Z,16.00
2023-03-18T11:26:56.189Z,14.53
2023-03-18T11:29:08.429Z,14.87
2023-03-18T11:31:19.973Z,14.53
2023-03-18T11:33:32.274Z,14.23
2023-03-18T11:35:48.217Z,13.53
2023-03-18T11:37:57.006Z,14.03
2023-03-18T11:40:14.753Z,14.33
2023-03-18T11:42:24.713Z,14.77
2023-03-18T11:44:34.525Z,15.17
2023-03-18T11:46:47.165Z,14.67
2023-03-18T11:48:56.988Z,14.67
2023-03-18T11:51:19.740Z,14.40
2023-03-18T11:53:33.153Z,14.87
2023-03-18T11:55:46.755Z,16.07
2023-03-18T11:58:10.532Z,14.40
2023-03-18T12:00:25.475Z,14.80
2023-03-18T12:03:03.492Z,14.40
2023-03-18T12:05:20.172Z,13.90
2023-03-18T12:07:43.700Z,14.53
2023-03-18T12:09:57.405Z,14.77
2023-03-18T12:12:11.288Z,14.63
2023-03-18T12:14:22.400Z,15.07
2023-03-18T12:16:40.648Z,14.23
2023-03-18T12:19:01.020Z,14.10
2023-03-18T12:21:16.311Z,14.20
2023-03-18T12:23:36.454Z,13.90
2023-03-18T12:25:55.698Z,14.10
2023-03-18T12:28:08.866Z,14.47
2023-03-18T12:30:26.693Z,13.67
2023-03-18T12:32:38.197Z,12.73
2023-03-18T12:34:55.622Z,12.57
2023-03-18T12:37:15.584Z,13.40
2023-03-18T12:39:36.638Z,11.37
2023-03-18T12:41:51.413Z,11.27
2023-03-18T12:44:05.059Z,11.57
2023-03-18T12:46:17.497Z,11.97
2023-03-18T12:48:43.229Z,11.87
2023-03-18T12:50:56.344Z,11.77
2023-03-18T12:53:06.253Z,12.37
2023-03-18T12:55:17.921Z,12.40
2023-03-18T12:57:30.727Z,11.40
2023-03-18T12:59:42.570Z,12.27
2023-03-18T13:01:55.346Z,11.83
2023-03-18T13:04:05.616Z,12.13
2023-03-18T13:06:19.027Z,13.33
2023-03-18T13:08:43.552Z,12.70
2023-03-18T13:10:57.222Z,13.07
2023-03-18T13:13:10.612Z,12.83
2023-03-18T13:15:24.705Z,13.43
2023-03-18T13:17:37.385Z,14.07
2023-03-18T13:19:47.154Z,13.97
2023-03-18T13:21:59.089Z,14.33
2023-03-18T13:24:14.522Z,14.90
2023-03-18T13:26:26.447Z,13.77
2023-03-18T13:28:47.466Z,15.67
2023-03-18T13:31:01.655Z,14.87
2023-03-18T13:33:28.324Z,13.83
2023-03-18T13:35:58.482Z,15.20
2023-03-18T13:38:15.036Z,15.17
2023-03-18T13:40:36.952Z,15.47
2023-03-18T13:42:45.979Z,15.43
2023-03-18T13:45:07.090Z,13.93
2023-03-18T13:47:19.046Z,15.33
2023-03-18T13:49:29.422Z,15.30
2023-03-18T13:51:52.399Z,16.10
2023-03-18T13:54:01.862Z,16.37
2023-03-18T13:56:28.606Z,16.00
2023-03-18T13:58:37.865Z,16.23
2023-03-18T14:01:09.307Z,15.87
2023-03-18T14:03:22.010Z,15.47
2023-03-18T14:05:40.482Z,16.63
2023-03-18T14:07:54.265Z,17.67
2023-03-18T14:10:19.910Z,15.97
2023-03-18T14:12:43.681Z,16.93
2023-03-18T14:15:01.666Z,17.13
2023-03-18T14:17:19.543Z,16.40
2023-03-18T14:19:32.684Z,17.03
2023-03-18T14:21:48.444Z,17.43
2023-03-18T14:24:07.965Z,16.40
2023-03-18T14:26:21.501Z,17.03
2023-03-18T14:28:31.605Z,17.17
2023-03-18T14:30:47.741Z,18.37
2023-03-18T14:33:01.507Z,17.87
2023-03-18T14:35:28.527Z,17.63
2023-03-18T14:37:56.539Z,16.90
2023-03-18T14:40:08.879Z,17.03
2023-03-18T14:42:25.818Z,18.20
2023-03-18T14:44:37.286Z,18.13
2023-03-18T14:46:50.317Z,17.87
2023-03-18T14:49:02.025Z,17.20
2023-03-18T14:51:13.818Z,17.50
2023-03-18T14:53:24.106Z,18.77
2023-03-18T14:55:34.449Z,18.20
2023-03-18T14:57:43.418Z,17.40
2023-03-18T14:59:52.832Z,18.30
2023-03-18T15:02:04.267Z,17.77
2023-03-18T15:04:18.922Z,17.20
2023-03-18T15:06:29.750Z,17.77
2023-03-18T15:08:48.015Z,17.57
2023-03-18T15:10:58.831Z,17.07
2023-03-18T15:13:08.725Z,17.90
2023-03-18T15:15:19.471Z,17.37
2023-03-18T15:17:28.792Z,18.60
2023-03-18T15:19:39.028Z,17.93
2023-03-18T15:21:48.649Z,18.47
2023-03-18T15:23:59.032Z,18.07
2023-03-18T15:26:09.931Z,18.20
2023-03-18T15:28:21.665Z,18.70
2023-03-18T15:30:31.795Z,17.27
2023-03-18T15:32:45.930Z,17.40
2023-03-18T15:34:58.116Z,18.07
2023-03-18T15:37:26.101Z,17.63
2023-03-18T15:39:36.163Z,17.83
2023-03-18T15:41:45.139Z,18.53
2023-03-18T15:43:54.637Z,19.00
2023-03-18T15:46:07.704Z,18.43
2023-03-18T15:48:23.543Z,18.67
2023-03-18T15:50:35.160Z,18.90
2023-03-18T15:52:44.684Z,20.37
2023-03-18T15:54:53.738Z,20.33
2023-03-18T15:57:12.745Z,21.17
2023-03-18T15:59:23.253Z,19.77
2023-03-18T16:01:31.873Z,20.47
2023-03-18T16:03:40.609Z,21.10
2023-03-18T16:05:51.022Z,22.23
2023-03-18T16:08:00.157Z,20.73
2023-03-18T16:10:10.179Z,19.83
2023-03-18T16:12:20.562Z,19.67
2023-03-18T16:14:31.398Z,18.87
2023-03-18T16:16:40.223Z,19.30
2023-03-18T16:18:49.249Z,18.37
2023-03-18T16:20:59.842Z,18.77
2023-03-18T16:23:08.762Z,18.53
2023-03-18T16:25:17.673Z,19.97
2023-03-18T16:27:30.660Z,20.33
2023-03-18T16:29:39.524Z,19.03
2023-03-18T16:31:48.514Z,19.20
2023-03-18T16:33:57.756Z,19.30
2023-03-18T16:36:08.761Z,20.03
2023-03-18T16:38:18.802Z,20.53
2023-03-18T16:40:28.289Z,19.87
2023-03-18T16:42:37.150Z,18.50
2023-03-18T16:44:46.479Z,19.37
2023-03-18T16:46:56.650Z,20.40
2023-03-18T16:49:05.495Z,19.87
2023-03-18T16:51:15.560Z,19.67
2023-03-18T16:53:26.016Z,19.43
2023-03-18T16:55:35.081Z,20.53
2023-03-18T16:57:44.756Z,20.30
2023-03-18T16:59:55.918Z,21.43
2023-03-18T17:02:05.778Z,25.03
2023-03-18T17:04:19.874Z,24.27
2023-03-18T17:06:30.410Z,24.73
2023-03-18T17:08:40.186Z,31.53
2023-03-18T17:10:49.867Z,28.73
2023-03-18T17:13:02.733Z,29.97
2023-03-18T17:15:13.832Z,29.77
2023-03-18T17:17:28.057Z,24.27
2023-03-18T17:19:36.937Z,23.00
2023-03-18T17:21:47.751Z,23.57
2023-03-18T17:23:57.508Z,23.47
2023-03-18T17:26:06.970Z,24.23
2023-03-18T17:28:20.466Z,24.00
2023-03-18T17:30:33.768Z,22.23
2023-03-18T17:32:42.489Z,31.90
2023-03-18T17:34:52.850Z,25.50
2023-03-18T17:37:04.016Z,23.73
2023-03-18T17:39:13.504Z,22.07
2023-03-18T17:41:23.020Z,22.80
2023-03-18T17:43:38.490Z,23.37
2023-03-18T17:45:47.782Z,20.73
2023-03-18T17:47:57.138Z,23.57
2023-03-18T17:50:06.384Z,22.73
2023-03-18T17:52:21.039Z,22.70
2023-03-18T17:54:31.766Z,22.30
2023-03-18T17:56:40.773Z,22.77
2023-03-18T17:58:51.640Z,22.67
2023-03-18T18:01:03.936Z,21.60
2023-03-18T18:03:19.967Z,21.03
2023-03-18T18:05:28.845Z,21.50
2023-03-18T18:07:39.593Z,22.03
2023-03-18T18:09:49.537Z,22.67
2023-03-18T18:11:58.915Z,22.40
2023-03-18T18:14:13.418Z,22.43
2023-03-18T18:16:23.048Z,22.83
2023-03-18T18:18:32.118Z,23.23
2023-03-18T18:20:40.941Z,24.03
2023-03-18T18:22:53.778Z,23.03
2023-03-18T18:25:02.954Z,23.00
2023-03-18T18:27:13.309Z,22.67
2023-03-18T18:29:23.076Z,22.13
2023-03-18T18:31:34.443Z,23.23
2023-03-18T18:33:45.117Z,24.03
2023-03-18T18:35:54.568Z,23.53
2023-03-18T18:38:05.457Z,24.87
2023-03-18T18:40:16.604Z,25.00
2023-03-18T18:42:27.205Z,24.77
2023-03-18T18:44:35.978Z,25.10
2023-03-18T18:46:45.496Z,25.33
2023-03-18T18:48:57.956Z,27.20
2023-03-18T18:51:07.271Z,25.53
2023-03-18T18:53:21.294Z,25.40
2023-03-18T18:55:30.773Z,24.93
2023-03-18T18:57:41.429Z,23.80
2023-03-18T18:59:50.426Z,24.50
2023-03-18T19:02:00.899Z,26.87
2023-03-18T19:04:15.796Z,24.93
2023-03-18T19:06:29.254Z,25.30
2023-03-18T19:08:39.345Z,25.07
2023-03-18T19:10:48.258Z,26.93
2023-03-18T19:12:57.626Z,28.07
2023-03-18T19:15:07.114Z,29.23
2023-03-18T19:17:17.599Z,29.57
2023-03-18T19:19:28.700Z,28.93
2023-03-18T19:21:38.334Z,27.10
2023-03-18T19:23:49.167Z,32.13
2023-03-18T19:26:00.184Z,32.83
2023-03-18T19:28:08.957Z,34.97
2023-03-18T19:30:24.987Z,33.40
2023-03-18T19:32:34.690Z,35.27
2023-03-18T19:34:46.067Z,34.67
2023-03-18T19:36:56.004Z,34.67
2023-03-18T19:39:06.609Z,32.30
2023-03-18T19:41:15.501Z,29.80
2023-03-18T19:43:24.944Z,30.13
2023-03-18T19:45:34.292Z,29.83
2023-03-18T19:47:46.035Z,32.00
2023-03-18T19:49:55.469Z,29.10
2023-03-18T19:52:04.945Z,29.60
2023-03-18T19:54:38.045Z,29.37
2023-03-18T19:56:49.349Z,28.93
2023-03-18T19:59:00.849Z,28.03
2023-03-18T20:01:10.118Z,32.33
2023-03-18T20:03:25.083Z,27.90
2023-03-18T20:05:35.976Z,28.80
2023-03-18T20:07:47.131Z,27.30
2023-03-18T20:09:56.300Z,30.00
2023-03-18T20:12:07.879Z,30.80
2023-03-18T20:14:22.221Z,27.13
2023-03-18T20:16:32.113Z,27.27
2023-03-18T20:18:41.387Z,28.73
2023-03-18T20:20:52.202Z,29.17
2023-03-18T20:23:02.795Z,30.03
2023-03-18T20:25:19.358Z,29.00
2023-03-18T20:27:30.690Z,27.83
2023-03-18T20:29:40.734Z,29.30
2023-03-18T20:31:50.505Z,28.93
2023-03-18T20:33:59.761Z,27.57
2023-03-18T20:36:12.469Z,28.73
2023-03-18T20:38:28.393Z,27.20
2023-03-18T20:40:37.880Z,25.10
2023-03-18T20:42:48.904Z,26.47
2023-03-18T20:44:58.113Z,27.53
2023-03-18T20:47:07.558Z,25.93
2023-03-18T20:49:20.002Z,27.93
2023-03-18T20:51:30.540Z,27.43
2023-03-18T20:53:39.360Z,28.50
2023-03-18T20:55:48.404Z,27.70
2023-03-18T20:58:00.153Z,29.80
2023-03-18T21:00:09.841Z,27.60
2023-03-18T21:02:30.058Z,26.53
2023-03-18T21:04:39.057Z,26.77
2023-03-18T21:06:49.125Z,29.77
2023-03-18T21:08:58.050Z,26.23
2023-03-18T21:11:08.600Z,24.10
2023-03-18T21:13:25.941Z,26.10
2023-03-18T21:15:38.343Z,25.73
2023-03-18T21:17:47.906Z,25.60
2023-03-18T21:20:11.014Z,31.50
2023-03-18T21:22:29.359Z,26.07
2023-03-18T21:24:39.339Z,27.33
2023-03-18T21:27:01.598Z,25.63
2023-03-18T21:29:14.785Z,27.70
2023-03-18T21:31:27.020Z,26.17
2023-03-18T21:33:37.527Z,27.27
2023-03-18T21:35:46.596Z,28.63
2023-03-18T21:37:56.681Z,28.00
2023-03-18T21:40:05.744Z,24.73
2023-03-18T21:42:18.593Z,26.43
2023-03-18T21:44:29.562Z,26.73
2023-03-18T21:46:38.709Z,25.27
2023-03-18T21:48:47.915Z,26.20
2023-03-18T21:50:57.231Z,26.23
2023-03-18T21:53:08.493Z,27.70
2023-03-18T21:55:17.749Z,25.57
2023-03-18T21:57:28.050Z,24.70
2023-03-18T21:59:38.754Z,23.00
2023-03-18T22:01:48.778Z,24.07
2023-03-18T22:03:59.213Z,24.63
2023-03-18T22:06:08.602Z,28.67
2023-03-18T22:08:17.628Z,24.73
2023-03-18T22:10:26.731Z,23.50
2023-03-18T22:12:37.048Z,30.67
2023-03-18T22:14:47.258Z,26.00
2023-03-18T22:16:56.427Z,26.17
2023-03-18T22:19:05.246Z,36.77
2023-03-18T22:21:16.454Z,29.23
2023-03-18T22:23:27.712Z,30.13
2023-03-18T22:25:37.847Z,27.47
2023-03-18T22:27:47.022Z,27.40
2023-03-18T22:29:57.902Z,25.67
2023-03-18T22:32:06.803Z,26.03
2023-03-18T22:34:23.057Z,24.80
2023-03-18T22:36:32.196Z,28.23
2023-03-18T22:38:41.248Z,30.37
2023-03-18T22:40:51.739Z,27.23
2023-03-18T22:43:01.959Z,27.87
2023-03-18T22:45:21.236Z,35.03
2023-03-18T22:47:30.450Z,24.87
2023-03-18T22:49:39.651Z,27.07
2023-03-18T22:51:48.570Z,33.70
2023-03-18T22:53:58.177Z,28.93
2023-03-18T22:56:09.201Z,26.10
2023-03-18T22:58:20.228Z,31.30
2023-03-18T23:00:37.578Z,31.00
2023-03-18T23:02:46.312Z,25.00
2023-03-18T23:04:55.910Z,24.83
2023-03-18T23:07:05.029Z,25.57
2023-03-18T23:09:14.382Z,32.37
2023-03-18T23:11:23.434Z,32.73
2023-03-18T23:13:35.925Z,30.20
2023-03-18T23:15:47.301Z,26.73
2023-03-18T23:17:56.283Z,43.27
2023-03-18T23:20:05.142Z,33.90
2023-03-18T23:22:15.336Z,34.53
2023-03-18T23:24:23.959Z,29.07
2023-03-18T23:26:33.413Z,37.63
2023-03-18T23:28:45.922Z,35.07
2023-03-18T23:30:56.452Z,32.93
2023-03-18T23:33:05.780Z,35.33
2023-03-18T23:35:15.053Z,30.03
2023-03-18T23:37:24.761Z,39.80
2023-03-18T23:39:34.269Z,39.43
2023-03-18T23:41:43.396Z,38.17
2023-03-18T23:43:52.786Z,40.83
2023-03-18T23:46:03.883Z,36.00
2023-03-18T23:48:12.615Z,39.13
2023-03-18T23:50:21.965Z,29.77
2023-03-18T23:52:31.286Z,31.80
2023-03-18T23:54:41.354Z,36.00
2023-03-18T23:56:50.720Z,32.07
2023-03-18T23:59:00.496Z,29.80
